Saffet Bey — TCUZ — position and weather

sailwx.info

Track history (hours):
 
Tides and Currents Weather Stations Pressure Air Temp Water Temp Dewpoint Dewpoint Depression Visibility Wind Speed Wind Dir Waves Ship Positions

Saffet Bey

Last reported at 2015-Jan-26 22:18 UTC. Time now 2015-Jan-30 02:45 UTC.
Position N 36°23' E 022°27'.

Length 164 m; draft 7.2 m.

Type: Cargo ship. MMSI: 271000419.

Date/timePositionNaut miles runAvg speedWind from/ knotsBaromVisibWave heightAir tempDewpointWater temp
2015-Jan-26 22:18N 36°23' E 022°27'13113.4
2015-Jan-26 12:33N 37°19' E 024°54'1414.1
2015-Jan-26 11:33N 37°27' E 025°08'1615.1
2015-Jan-26 10:31N 37°37' E 025°24'1515.2
2015-Jan-26 09:33N 37°48' E 025°37'12 0.6
2015-Jan-25 13:30N 37°40' E 025°26'1414.9
2015-Jan-25 12:33N 37°30' E 025°13'1515.0
2015-Jan-25 11:32N 37°21' E 024°58'  
2015-Jan-19 03:09N 37°14' E 024°48'914.3
2015-Jan-19 02:33N 37°20' E 024°56'1413.8
2015-Jan-19 01:33N 37°28' E 025°10'  
Track history (hours):
 
Tides and Currents Weather Stations Pressure Air Temp Water Temp Dewpoint Dewpoint Depression Visibility Wind Speed Wind Dir Waves Ship Positions

Saffet Bey

Last reported at 2015-Jan-26 22:18 UTC. Time now 2015-Jan-30 02:45 UTC.
Position N 36°23' E 022°27'.

Length 164 m; draft 7.2 m.

Type: Cargo ship. MMSI: 271000419.

Date/timePositionNaut miles runAvg speedWind from/ knotsBaromVisibWave heightAir tempDewpointWater temp
2015-Jan-26 22:18N 36°23' E 022°27'13113.4
2015-Jan-26 12:33N 37°19' E 024°54'1414.1
2015-Jan-26 11:33N 37°27' E 025°08'1615.1
2015-Jan-26 10:31N 37°37' E 025°24'1515.2
2015-Jan-26 09:33N 37°48' E 025°37'12 0.6
2015-Jan-25 13:30N 37°40' E 025°26'1414.9
2015-Jan-25 12:33N 37°30' E 025°13'1515.0
2015-Jan-25 11:32N 37°21' E 024°58'  
2015-Jan-19 03:09N 37°14' E 024°48'914.3
2015-Jan-19 02:33N 37°20' E 024°56'1413.8
2015-Jan-19 01:33N 37°28' E 025°10'  

Dump ship's entire track history